Pagrindinis puslapis
METAR-TAF:

METAR-TAF

Oro uostai :

Shageluk, Aliaska, Jungtinės Amerikos Valstijos

platuma: 62-41-32N, ilguma: 159-34-09W, Aukštis: 24 m

Dabartinis oras

Ataskaita buvo paskelbta 8 minutes, ne 04:04 UTC
Vėjas 7 kt iš Šiaurės
Temperatūra 11°C
Drėgmė 100%
Slėgis 1000 hPa
Matomumas: 16.1 km
Su prošvaistėmis ne aukštis 800 ft
Su prošvaistėmis ne aukštis 1900 ft
Apsiniaukę ne aukštis 3800 ft
lietus

METAR: PAHX 160404Z AUTO 01007KT 10SM -RA BKN008 BKN019 OVC038 11/11 A2954 RMK AO2 CIG 007V012 P0000

Laikas: 20:12 (04:12 UTC)


TAF: trūkstamas

Orai ataskaitas ir orų prognozės (METAR, TAF).

turimą stotys yra geltonos ir raudonos taškus žemėlapyje.

Perkelti pele per norėdami pamatyti stoties vardą.

Tada spustelėkite, norėdami matyti oro stebėjimo ir prognozės.

Norėdami pakeisti žemėlapį: spustelėkite ant žalios mygtukų su juodo kryžiaus žemyn,; žalią mygtuką su brūkšneliu, jei norite nutolinti; arba žalių rodyklių gretimoms žemėlapius.


METAR-TAF: